sensor_id;sensor_type;location;lat;lon;timestamp;pressure;altitude;pressure_sealevel;temperature;humidity
20971;BME280;10644;48.834;10.088;2024-01-15T00:01:59;95582.38;;;0.32;61.39
20971;BME280;10644;48.834;10.088;2024-01-15T00:04:28;95580.16;;;0.47;60.90
20971;BME280;10644;48.834;10.088;2024-01-15T00:06:53;95575.81;;;0.52;60.46
20971;BME280;10644;48.834;10.088;2024-01-15T00:09:18;95577.84;;;0.41;60.98
20971;BME280;10644;48.834;10.088;2024-01-15T00:11:44;95573.88;;;0.60;60.94
20971;BME280;10644;48.834;10.088;2024-01-15T00:14:10;95571.31;;;0.62;60.38
20971;BME280;10644;48.834;10.088;2024-01-15T00:16:35;95573.66;;;0.66;60.34
20971;BME280;10644;48.834;10.088;2024-01-15T00:19:00;95567.03;;;0.39;61.19
20971;BME280;10644;48.834;10.088;2024-01-15T00:21:26;95566.19;;;0.63;60.75
20971;BME280;10644;48.834;10.088;2024-01-15T00:23:52;95551.09;;;0.86;59.82
20971;BME280;10644;48.834;10.088;2024-01-15T00:26:20;95558.34;;;0.95;59.25
20971;BME280;10644;48.834;10.088;2024-01-15T00:28:45;95552.00;;;1.08;59.28
20971;BME280;10644;48.834;10.088;2024-01-15T00:31:11;95546.84;;;1.11;59.07
20971;BME280;10644;48.834;10.088;2024-01-15T00:33:36;95554.69;;;1.04;59.37
20971;BME280;10644;48.834;10.088;2024-01-15T00:36:01;95554.50;;;0.85;59.64
20971;BME280;10644;48.834;10.088;2024-01-15T00:38:27;95560.50;;;0.58;60.35
20971;BME280;10644;48.834;10.088;2024-01-15T00:40:52;95558.44;;;0.69;60.53
20971;BME280;10644;48.834;10.088;2024-01-15T00:43:22;95552.97;;;0.81;59.66
20971;BME280;10644;48.834;10.088;2024-01-15T00:45:47;95556.75;;;0.93;59.50
20971;BME280;10644;48.834;10.088;2024-01-15T00:48:12;95553.28;;;0.97;58.88
20971;BME280;10644;48.834;10.088;2024-01-15T00:50:38;95556.94;;;1.11;58.94
20971;BME280;10644;48.834;10.088;2024-01-15T00:53:03;95551.19;;;1.08;58.77
20971;BME280;10644;48.834;10.088;2024-01-15T00:55:28;95555.00;;;1.18;58.72
20971;BME280;10644;48.834;10.088;2024-01-15T00:57:56;95554.72;;;1.25;58.30
20971;BME280;10644;48.834;10.088;2024-01-15T01:00:22;95548.44;;;1.37;57.94
20971;BME280;10644;48.834;10.088;2024-01-15T01:02:47;95546.09;;;1.54;57.87
20971;BME280;10644;48.834;10.088;2024-01-15T01:05:13;95551.94;;;1.54;57.67
20971;BME280;10644;48.834;10.088;2024-01-15T01:07:38;95553.66;;;1.54;57.50
20971;BME280;10644;48.834;10.088;2024-01-15T01:10:04;95539.66;;;1.68;57.39
20971;BME280;10644;48.834;10.088;2024-01-15T01:12:29;95545.75;;;1.84;57.03
20971;BME280;10644;48.834;10.088;2024-01-15T01:14:55;95540.56;;;1.87;57.15
20971;BME280;10644;48.834;10.088;2024-01-15T01:17:20;95534.09;;;2.02;56.59
20971;BME280;10644;48.834;10.088;2024-01-15T01:19:49;95536.72;;;2.00;56.57
20971;BME280;10644;48.834;10.088;2024-01-15T01:22:15;95533.88;;;1.86;57.19
20971;BME280;10644;48.834;10.088;2024-01-15T01:24:40;95532.72;;;1.73;57.20
20971;BME280;10644;48.834;10.088;2024-01-15T01:27:05;95534.41;;;1.73;57.15
20971;BME280;10644;48.834;10.088;2024-01-15T01:29:33;95521.03;;;1.92;56.43
20971;BME280;10644;48.834;10.088;2024-01-15T01:31:58;95530.47;;;2.09;56.07
20971;BME280;10644;48.834;10.088;2024-01-15T01:34:24;95520.28;;;2.10;56.23
20971;BME280;10644;48.834;10.088;2024-01-15T01:36:49;95531.28;;;2.09;55.70
20971;BME280;10644;48.834;10.088;2024-01-15T01:39:17;95515.81;;;1.75;56.17
20971;BME280;10644;48.834;10.088;2024-01-15T01:41:42;95525.25;;;1.70;56.71
20971;BME280;10644;48.834;10.088;2024-01-15T01:44:08;95529.66;;;1.65;57.19
20971;BME280;10644;48.834;10.088;2024-01-15T01:46:34;95523.22;;;1.58;57.05
20971;BME280;10644;48.834;10.088;2024-01-15T01:49:04;95523.72;;;1.45;57.45
20971;BME280;10644;48.834;10.088;2024-01-15T01:51:31;95525.91;;;1.32;57.93
20971;BME280;10644;48.834;10.088;2024-01-15T01:53:58;95532.38;;;1.39;58.03
20971;BME280;10644;48.834;10.088;2024-01-15T01:56:24;95529.78;;;1.62;57.54
20971;BME280;10644;48.834;10.088;2024-01-15T01:58:49;95525.91;;;1.75;57.36
20971;BME280;10644;48.834;10.088;2024-01-15T02:01:15;95510.44;;;1.84;57.01
20971;BME280;10644;48.834;10.088;2024-01-15T02:03:41;95522.19;;;2.05;56.65
20971;BME280;10644;48.834;10.088;2024-01-15T02:06:07;95504.88;;;1.96;57.08
20971;BME280;10644;48.834;10.088;2024-01-15T02:08:34;95522.34;;;1.81;57.20
20971;BME280;10644;48.834;10.088;2024-01-15T02:10:59;95515.94;;;1.72;56.93
20971;BME280;10644;48.834;10.088;2024-01-15T02:13:25;95521.84;;;1.71;57.36
20971;BME280;10644;48.834;10.088;2024-01-15T02:15:50;95520.16;;;1.72;57.92
20971;BME280;10644;48.834;10.088;2024-01-15T02:18:16;95520.81;;;1.55;58.03
20971;BME280;10644;48.834;10.088;2024-01-15T02:20:41;95518.88;;;1.62;58.07
20971;BME280;10644;48.834;10.088;2024-01-15T02:25:32;95512.88;;;1.64;57.83
20971;BME280;10644;48.834;10.088;2024-01-15T02:27:57;95521.09;;;1.69;58.08
20971;BME280;10644;48.834;10.088;2024-01-15T02:30:23;95518.97;;;1.80;58.01
20971;BME280;10644;48.834;10.088;2024-01-15T02:32:50;95510.28;;;1.87;58.07
20971;BME280;10644;48.834;10.088;2024-01-15T02:35:16;95513.84;;;1.83;58.23
20971;BME280;10644;48.834;10.088;2024-01-15T02:37:41;95513.78;;;2.05;57.85
20971;BME280;10644;48.834;10.088;2024-01-15T02:40:07;95507.59;;;2.12;57.68
20971;BME280;10644;48.834;10.088;2024-01-15T02:42:34;95509.44;;;2.08;57.41
20971;BME280;10644;48.834;10.088;2024-01-15T02:45:00;95508.31;;;2.15;57.45
20971;BME280;10644;48.834;10.088;2024-01-15T02:47:25;95502.88;;;2.04;58.06
20971;BME280;10644;48.834;10.088;2024-01-15T02:49:50;95495.78;;;1.72;59.24
20971;BME280;10644;48.834;10.088;2024-01-15T02:52:16;95486.81;;;1.85;59.11
20971;BME280;10644;48.834;10.088;2024-01-15T02:54:41;95474.66;;;1.75;59.32
20971;BME280;10644;48.834;10.088;2024-01-15T02:57:07;95490.19;;;1.86;59.24
20971;BME280;10644;48.834;10.088;2024-01-15T02:59:32;95499.78;;;1.76;59.67
20971;BME280;10644;48.834;10.088;2024-01-15T03:01:57;95494.94;;;1.72;59.63
20971;BME280;10644;48.834;10.088;2024-01-15T03:04:23;95491.06;;;1.63;60.17
20971;BME280;10644;48.834;10.088;2024-01-15T03:06:48;95494.47;;;1.62;60.36
20971;BME280;10644;48.834;10.088;2024-01-15T03:09:13;95491.91;;;1.64;60.16
20971;BME280;10644;48.834;10.088;2024-01-15T03:11:39;95494.34;;;1.65;60.23
20971;BME280;10644;48.834;10.088;2024-01-15T03:14:04;95499.75;;;1.56;60.93
20971;BME280;10644;48.834;10.088;2024-01-15T03:16:30;95502.28;;;1.56;60.66
20971;BME280;10644;48.834;10.088;2024-01-15T03:18:55;95497.66;;;1.67;60.42
20971;BME280;10644;48.834;10.088;2024-01-15T03:21:20;95485.94;;;1.86;59.80
20971;BME280;10644;48.834;10.088;2024-01-15T03:23:46;95478.97;;;1.71;60.36
20971;BME280;10644;48.834;10.088;2024-01-15T03:26:11;95483.56;;;1.83;60.25
20971;BME280;10644;48.834;10.088;2024-01-15T03:28:36;95497.19;;;1.99;59.90
20971;BME280;10644;48.834;10.088;2024-01-15T03:31:04;95481.66;;;1.88;59.89
20971;BME280;10644;48.834;10.088;2024-01-15T03:33:29;95480.38;;;1.78;60.67
20971;BME280;10644;48.834;10.088;2024-01-15T03:35:54;95491.78;;;1.67;60.81
20971;BME280;10644;48.834;10.088;2024-01-15T03:38:20;95484.97;;;1.69;60.89
20971;BME280;10644;48.834;10.088;2024-01-15T03:40:47;95496.63;;;1.71;60.97
20971;BME280;10644;48.834;10.088;2024-01-15T03:43:13;95490.56;;;1.55;61.45
20971;BME280;10644;48.834;10.088;2024-01-15T03:45:38;95491.22;;;1.80;60.73
20971;BME280;10644;48.834;10.088;2024-01-15T03:48:06;95483.06;;;1.74;61.04
20971;BME280;10644;48.834;10.088;2024-01-15T03:50:31;95476.53;;;1.70;61.46
20971;BME280;10644;48.834;10.088;2024-01-15T03:52:56;95478.84;;;1.74;61.11
20971;BME280;10644;48.834;10.088;2024-01-15T03:55:22;95485.53;;;1.75;61.24
20971;BME280;10644;48.834;10.088;2024-01-15T03:57:47;95477.91;;;1.77;60.93
20971;BME280;10644;48.834;10.088;2024-01-15T04:00:15;95472.31;;;1.90;60.65
20971;BME280;10644;48.834;10.088;2024-01-15T04:02:43;95474.25;;;1.84;60.48
20971;BME280;10644;48.834;10.088;2024-01-15T04:05:08;95480.00;;;1.67;61.31
20971;BME280;10644;48.834;10.088;2024-01-15T04:07:34;95474.28;;;1.62;61.98
20971;BME280;10644;48.834;10.088;2024-01-15T04:09:59;95468.41;;;1.83;61.03
20971;BME280;10644;48.834;10.088;2024-01-15T04:12:24;95469.91;;;1.87;61.23
20971;BME280;10644;48.834;10.088;2024-01-15T04:14:50;95473.31;;;1.86;60.64
20971;BME280;10644;48.834;10.088;2024-01-15T04:17:15;95470.56;;;1.92;60.60
20971;BME280;10644;48.834;10.088;2024-01-15T04:19:45;95459.81;;;1.87;60.84
20971;BME280;10644;48.834;10.088;2024-01-15T04:22:11;95456.19;;;1.94;61.00
20971;BME280;10644;48.834;10.088;2024-01-15T04:24:39;95455.84;;;2.02;60.40
20971;BME280;10644;48.834;10.088;2024-01-15T04:27:05;95462.19;;;1.92;59.95
20971;BME280;10644;48.834;10.088;2024-01-15T04:29:33;95459.00;;;1.87;60.53
20971;BME280;10644;48.834;10.088;2024-01-15T04:31:58;95461.09;;;1.97;60.15
20971;BME280;10644;48.834;10.088;2024-01-15T04:34:24;95469.06;;;2.08;60.24
20971;BME280;10644;48.834;10.088;2024-01-15T04:36:49;95463.00;;;2.12;60.12
20971;BME280;10644;48.834;10.088;2024-01-15T04:39:14;95469.38;;;2.21;59.79
20971;BME280;10644;48.834;10.088;2024-01-15T04:41:40;95459.06;;;2.25;59.26
20971;BME280;10644;48.834;10.088;2024-01-15T04:44:05;95477.50;;;2.07;59.77
20971;BME280;10644;48.834;10.088;2024-01-15T04:46:30;95462.47;;;2.04;60.21
20971;BME280;10644;48.834;10.088;2024-01-15T04:48:56;95462.06;;;2.15;59.76
20971;BME280;10644;48.834;10.088;2024-01-15T04:51:21;95466.03;;;2.00;59.99
20971;BME280;10644;48.834;10.088;2024-01-15T04:53:47;95460.97;;;2.00;60.09
20971;BME280;10644;48.834;10.088;2024-01-15T04:56:14;95467.41;;;2.07;59.98
20971;BME280;10644;48.834;10.088;2024-01-15T04:58:40;95457.44;;;2.04;60.15
20971;BME280;10644;48.834;10.088;2024-01-15T05:01:05;95459.91;;;2.06;59.75
20971;BME280;10644;48.834;10.088;2024-01-15T05:03:32;95458.44;;;2.20;59.34
20971;BME280;10644;48.834;10.088;2024-01-15T05:05:58;95464.88;;;2.27;59.23
20971;BME280;10644;48.834;10.088;2024-01-15T05:08:23;95460.22;;;2.18;59.35
20971;BME280;10644;48.834;10.088;2024-01-15T05:10:48;95457.13;;;2.12;59.44
20971;BME280;10644;48.834;10.088;2024-01-15T05:13:16;95452.25;;;2.07;59.61
20971;BME280;10644;48.834;10.088;2024-01-15T05:15:42;95437.13;;;2.07;59.85
20971;BME280;10644;48.834;10.088;2024-01-15T05:18:07;95445.59;;;2.06;59.70
20971;BME280;10644;48.834;10.088;2024-01-15T05:20:35;95444.31;;;1.96;60.36
20971;BME280;10644;48.834;10.088;2024-01-15T05:23:00;95427.16;;;1.84;60.02
20971;BME280;10644;48.834;10.088;2024-01-15T05:25:25;95431.94;;;2.10;60.08
20971;BME280;10644;48.834;10.088;2024-01-15T05:27:51;95429.28;;;2.33;59.47
20971;BME280;10644;48.834;10.088;2024-01-15T05:30:16;95428.66;;;2.28;59.53
20971;BME280;10644;48.834;10.088;2024-01-15T05:32:44;95430.03;;;2.15;59.59
20971;BME280;10644;48.834;10.088;2024-01-15T05:35:10;95449.03;;;2.24;59.21
20971;BME280;10644;48.834;10.088;2024-01-15T05:37:35;95446.59;;;2.22;59.18
20971;BME280;10644;48.834;10.088;2024-01-15T05:40:00;95439.13;;;2.19;59.35
20971;BME280;10644;48.834;10.088;2024-01-15T05:42:26;95436.91;;;2.32;59.13
20971;BME280;10644;48.834;10.088;2024-01-15T05:44:51;95439.75;;;2.24;59.55
20971;BME280;10644;48.834;10.088;2024-01-15T05:47:17;95444.81;;;2.24;59.51
20971;BME280;10644;48.834;10.088;2024-01-15T05:49:43;95437.75;;;2.12;59.81
20971;BME280;10644;48.834;10.088;2024-01-15T05:52:09;95439.19;;;2.18;60.00
20971;BME280;10644;48.834;10.088;2024-01-15T05:54:37;95431.94;;;2.10;60.04
20971;BME280;10644;48.834;10.088;2024-01-15T05:57:02;95431.66;;;2.16;59.91
20971;BME280;10644;48.834;10.088;2024-01-15T05:59:28;95425.38;;;2.06;59.84
20971;BME280;10644;48.834;10.088;2024-01-15T06:01:56;95425.75;;;2.17;60.08
20971;BME280;10644;48.834;10.088;2024-01-15T06:04:22;95415.28;;;2.06;60.13
20971;BME280;10644;48.834;10.088;2024-01-15T06:06:47;95409.84;;;2.15;59.91
20971;BME280;10644;48.834;10.088;2024-01-15T06:09:15;95412.19;;;2.20;59.88
20971;BME280;10644;48.834;10.088;2024-01-15T06:11:44;95398.88;;;1.96;60.33
20971;BME280;10644;48.834;10.088;2024-01-15T06:14:12;95404.25;;;2.27;60.08
20971;BME280;10644;48.834;10.088;2024-01-15T06:16:40;95396.84;;;2.24;59.68
20971;BME280;10644;48.834;10.088;2024-01-15T06:19:05;95401.00;;;2.25;59.56
20971;BME280;10644;48.834;10.088;2024-01-15T06:21:31;95412.31;;;2.17;59.86
20971;BME280;10644;48.834;10.088;2024-01-15T06:23:58;95411.88;;;2.07;60.40
20971;BME280;10644;48.834;10.088;2024-01-15T06:26:24;95413.00;;;2.20;59.78
20971;BME280;10644;48.834;10.088;2024-01-15T06:28:49;95423.13;;;2.39;59.45
20971;BME280;10644;48.834;10.088;2024-01-15T06:31:15;95423.44;;;2.51;59.04
20971;BME280;10644;48.834;10.088;2024-01-15T06:33:40;95419.50;;;2.44;59.21
20971;BME280;10644;48.834;10.088;2024-01-15T06:36:06;95411.41;;;2.38;59.22
20971;BME280;10644;48.834;10.088;2024-01-15T06:38:34;95404.66;;;2.18;60.02
20971;BME280;10644;48.834;10.088;2024-01-15T06:41:01;95398.63;;;2.02;60.61
20971;BME280;10644;48.834;10.088;2024-01-15T06:43:27;95418.31;;;2.14;60.66
20971;BME280;10644;48.834;10.088;2024-01-15T06:45:52;95408.16;;;2.16;60.74
20971;BME280;10644;48.834;10.088;2024-01-15T06:48:18;95416.28;;;2.22;60.43
20971;BME280;10644;48.834;10.088;2024-01-15T06:50:50;95406.66;;;2.30;60.35
20971;BME280;10644;48.834;10.088;2024-01-15T06:53:18;95413.97;;;2.36;60.09
20971;BME280;10644;48.834;10.088;2024-01-15T06:55:46;95400.47;;;2.37;60.09
20971;BME280;10644;48.834;10.088;2024-01-15T06:58:11;95403.78;;;2.76;59.91
20971;BME280;10644;48.834;10.088;2024-01-15T07:00:37;95405.69;;;2.71;59.04
20971;BME280;10644;48.834;10.088;2024-01-15T07:03:06;95405.28;;;2.62;58.87
20971;BME280;10644;48.834;10.088;2024-01-15T07:05:31;95405.94;;;2.47;60.56
20971;BME280;10644;48.834;10.088;2024-01-15T07:07:57;95402.81;;;2.60;59.59
20971;BME280;10644;48.834;10.088;2024-01-15T07:10:22;95426.56;;;2.75;58.97
20971;BME280;10644;48.834;10.088;2024-01-15T07:12:47;95415.03;;;2.51;60.33
20971;BME280;10644;48.834;10.088;2024-01-15T07:15:15;95415.34;;;2.43;59.79
20971;BME280;10644;48.834;10.088;2024-01-15T07:17:41;95408.13;;;2.54;59.64
20971;BME280;10644;48.834;10.088;2024-01-15T07:20:07;95415.78;;;2.71;58.98
20971;BME280;10644;48.834;10.088;2024-01-15T07:22:36;95417.97;;;2.60;59.25
20971;BME280;10644;48.834;10.088;2024-01-15T07:25:05;95419.00;;;2.56;59.35
20971;BME280;10644;48.834;10.088;2024-01-15T07:27:32;95409.28;;;2.47;59.51
20971;BME280;10644;48.834;10.088;2024-01-15T07:29:57;95414.25;;;2.30;60.08
20971;BME280;10644;48.834;10.088;2024-01-15T07:32:23;95427.25;;;2.41;60.39
20971;BME280;10644;48.834;10.088;2024-01-15T07:34:48;95425.28;;;2.66;61.05
20971;BME280;10644;48.834;10.088;2024-01-15T07:37:14;95424.13;;;3.10;60.62
20971;BME280;10644;48.834;10.088;2024-01-15T07:39:43;95426.56;;;3.30;58.11
20971;BME280;10644;48.834;10.088;2024-01-15T07:42:08;95428.38;;;3.10;58.00
20971;BME280;10644;48.834;10.088;2024-01-15T07:44:33;95434.38;;;3.07;58.34
20971;BME280;10644;48.834;10.088;2024-01-15T07:46:59;95433.56;;;2.88;58.79
20971;BME280;10644;48.834;10.088;2024-01-15T07:49:24;95438.94;;;2.99;59.24
20971;BME280;10644;48.834;10.088;2024-01-15T07:51:50;95429.72;;;2.98;58.60
20971;BME280;10644;48.834;10.088;2024-01-15T07:54:15;95440.19;;;3.09;59.09
20971;BME280;10644;48.834;10.088;2024-01-15T07:59:19;95431.69;;;3.10;57.79
20971;BME280;10644;48.834;10.088;2024-01-15T08:01:44;95433.00;;;3.00;58.75
20971;BME280;10644;48.834;10.088;2024-01-15T08:04:10;95425.34;;;2.83;58.91
20971;BME280;10644;48.834;10.088;2024-01-15T08:06:38;95413.53;;;2.84;58.84
20971;BME280;10644;48.834;10.088;2024-01-15T08:09:03;95409.50;;;2.98;59.91
20971;BME280;10644;48.834;10.088;2024-01-15T08:11:29;95415.63;;;3.11;58.63
20971;BME280;10644;48.834;10.088;2024-01-15T08:13:55;95415.91;;;3.05;58.64
20971;BME280;10644;48.834;10.088;2024-01-15T08:16:20;95416.19;;;2.99;58.43
20971;BME280;10644;48.834;10.088;2024-01-15T08:18:47;95420.78;;;2.91;58.83
20971;BME280;10644;48.834;10.088;2024-01-15T08:21:12;95412.66;;;3.03;59.77
20971;BME280;10644;48.834;10.088;2024-01-15T08:23:38;95413.78;;;3.15;58.10
20971;BME280;10644;48.834;10.088;2024-01-15T08:26:04;95413.00;;;2.96;58.46
20971;BME280;10644;48.834;10.088;2024-01-15T08:28:29;95409.00;;;3.09;58.12
20971;BME280;10644;48.834;10.088;2024-01-15T08:30:55;95418.31;;;3.08;58.32
20971;BME280;10644;48.834;10.088;2024-01-15T08:33:25;95411.53;;;3.09;57.71
20971;BME280;10644;48.834;10.088;2024-01-15T08:35:50;95412.38;;;3.09;58.12
20971;BME280;10644;48.834;10.088;2024-01-15T08:38:16;95409.59;;;3.32;59.36
20971;BME280;10644;48.834;10.088;2024-01-15T08:40:41;95401.41;;;3.27;57.82
20971;BME280;10644;48.834;10.088;2024-01-15T08:43:12;95409.47;;;3.35;57.82
20971;BME280;10644;48.834;10.088;2024-01-15T08:45:39;95413.19;;;3.45;57.78
20971;BME280;10644;48.834;10.088;2024-01-15T08:48:12;95402.94;;;3.48;56.79
20971;BME280;10644;48.834;10.088;2024-01-15T08:50:38;95412.38;;;3.45;57.05
20971;BME280;10644;48.834;10.088;2024-01-15T08:53:06;95427.88;;;3.56;57.03
20971;BME280;10644;48.834;10.088;2024-01-15T08:55:31;95412.31;;;3.46;56.97
20971;BME280;10644;48.834;10.088;2024-01-15T08:58:06;95408.00;;;3.48;57.19
20971;BME280;10644;48.834;10.088;2024-01-15T09:00:31;95424.03;;;3.30;57.28
20971;BME280;10644;48.834;10.088;2024-01-15T09:02:57;95427.38;;;3.31;57.39
20971;BME280;10644;48.834;10.088;2024-01-15T09:05:22;95421.78;;;3.24;57.81
20971;BME280;10644;48.834;10.088;2024-01-15T09:07:48;95413.72;;;3.16;57.59
20971;BME280;10644;48.834;10.088;2024-01-15T09:10:13;95420.38;;;3.36;57.11
20971;BME280;10644;48.834;10.088;2024-01-15T09:12:39;95422.16;;;3.52;56.80
20971;BME280;10644;48.834;10.088;2024-01-15T09:15:07;95405.59;;;3.45;56.43
20971;BME280;10644;48.834;10.088;2024-01-15T09:17:33;95431.69;;;3.64;57.23
20971;BME280;10644;48.834;10.088;2024-01-15T09:19:58;95422.91;;;3.71;56.16
20971;BME280;10644;48.834;10.088;2024-01-15T09:22:27;95433.91;;;3.53;56.67
20971;BME280;10644;48.834;10.088;2024-01-15T09:24:52;95411.84;;;3.55;56.34
20971;BME280;10644;48.834;10.088;2024-01-15T09:27:18;95415.16;;;3.57;56.24
20971;BME280;10644;48.834;10.088;2024-01-15T09:29:43;95402.75;;;3.34;56.44
20971;BME280;10644;48.834;10.088;2024-01-15T09:32:11;95403.53;;;3.53;55.98
20971;BME280;10644;48.834;10.088;2024-01-15T09:34:37;95407.53;;;3.40;56.36
20971;BME280;10644;48.834;10.088;2024-01-15T09:37:02;95410.75;;;3.44;56.58
20971;BME280;10644;48.834;10.088;2024-01-15T09:39:29;95401.72;;;3.55;56.11
20971;BME280;10644;48.834;10.088;2024-01-15T09:41:57;95416.34;;;3.67;56.34
20971;BME280;10644;48.834;10.088;2024-01-15T09:44:23;95411.88;;;3.72;57.71
20971;BME280;10644;48.834;10.088;2024-01-15T09:46:49;95404.22;;;3.91;56.50
20971;BME280;10644;48.834;10.088;2024-01-15T09:49:17;95395.94;;;4.04;56.61
20971;BME280;10644;48.834;10.088;2024-01-15T09:51:43;95383.59;;;3.98;55.54
20971;BME280;10644;48.834;10.088;2024-01-15T09:54:09;95382.97;;;4.10;56.32
20971;BME280;10644;48.834;10.088;2024-01-15T09:56:35;95381.97;;;4.30;55.22
20971;BME280;10644;48.834;10.088;2024-01-15T09:59:01;95392.09;;;4.30;55.25
20971;BME280;10644;48.834;10.088;2024-01-15T10:01:27;95378.59;;;4.29;54.00
20971;BME280;10644;48.834;10.088;2024-01-15T10:03:54;95378.19;;;4.21;52.84
20971;BME280;10644;48.834;10.088;2024-01-15T10:06:21;95379.78;;;3.90;53.36
20971;BME280;10644;48.834;10.088;2024-01-15T10:08:48;95369.31;;;3.63;54.00
20971;BME280;10644;48.834;10.088;2024-01-15T10:11:13;95375.38;;;3.93;53.87
20971;BME280;10644;48.834;10.088;2024-01-15T10:13:45;95378.66;;;3.78;53.59
20971;BME280;10644;48.834;10.088;2024-01-15T10:16:11;95375.41;;;3.59;54.44
20971;BME280;10644;48.834;10.088;2024-01-15T10:18:37;95363.34;;;3.81;54.93
20971;BME280;10644;48.834;10.088;2024-01-15T10:21:07;95354.19;;;3.79;53.59
20971;BME280;10644;48.834;10.088;2024-01-15T10:23:33;95347.97;;;3.84;53.68
20971;BME280;10644;48.834;10.088;2024-01-15T10:25:59;95343.84;;;3.66;53.60
20971;BME280;10644;48.834;10.088;2024-01-15T10:28:29;95339.38;;;3.37;54.20
20971;BME280;10644;48.834;10.088;2024-01-15T10:30:56;95338.75;;;3.32;54.70
20971;BME280;10644;48.834;10.088;2024-01-15T10:33:25;95337.44;;;3.59;54.38
20971;BME280;10644;48.834;10.088;2024-01-15T10:35:57;95352.44;;;3.45;54.15
20971;BME280;10644;48.834;10.088;2024-01-15T10:38:24;95334.75;;;3.45;53.90
20971;BME280;10644;48.834;10.088;2024-01-15T10:43:18;95326.84;;;3.68;53.68
20971;BME280;10644;48.834;10.088;2024-01-15T10:45:45;95322.56;;;3.53;54.54
20971;BME280;10644;48.834;10.088;2024-01-15T10:48:11;95321.94;;;3.65;54.52
20971;BME280;10644;48.834;10.088;2024-01-15T10:50:37;95314.47;;;3.79;53.12
20971;BME280;10644;48.834;10.088;2024-01-15T10:53:03;95302.28;;;3.87;53.62
20971;BME280;10644;48.834;10.088;2024-01-15T10:55:29;95319.72;;;3.76;53.52
20971;BME280;10644;48.834;10.088;2024-01-15T10:57:57;95312.88;;;3.44;53.89
20971;BME280;10644;48.834;10.088;2024-01-15T11:00:22;95303.19;;;3.69;57.16
20971;BME280;10644;48.834;10.088;2024-01-15T11:02:50;95313.16;;;3.72;54.21
20971;BME280;10644;48.834;10.088;2024-01-15T11:05:16;95305.69;;;3.86;53.64
20971;BME280;10644;48.834;10.088;2024-01-15T11:07:43;95305.81;;;4.00;53.09
20971;BME280;10644;48.834;10.088;2024-01-15T11:13:03;95308.31;;;3.85;53.50
20971;BME280;10644;48.834;10.088;2024-01-15T11:15:30;95318.13;;;3.91;53.38
20971;BME280;10644;48.834;10.088;2024-01-15T11:18:00;95298.38;;;3.97;53.32
20971;BME280;10644;48.834;10.088;2024-01-15T11:20:30;95299.94;;;4.00;53.02
20971;BME280;10644;48.834;10.088;2024-01-15T11:22:57;95310.16;;;3.98;52.93
20971;BME280;10644;48.834;10.088;2024-01-15T11:25:36;95307.47;;;3.84;52.83
20971;BME280;10644;48.834;10.088;2024-01-15T11:28:03;95295.78;;;3.82;53.17
20971;BME280;10644;48.834;10.088;2024-01-15T11:30:31;95290.31;;;3.74;53.29
20971;BME280;10644;48.834;10.088;2024-01-15T11:33:01;95304.31;;;3.64;53.95
20971;BME280;10644;48.834;10.088;2024-01-15T11:35:49;95299.47;;;3.76;53.60
20971;BME280;10644;48.834;10.088;2024-01-15T11:38:27;95298.78;;;3.73;54.08
20971;BME280;10644;48.834;10.088;2024-01-15T11:40:53;95293.38;;;3.63;54.14
20971;BME280;10644;48.834;10.088;2024-01-15T11:43:19;95291.34;;;3.70;54.65
20971;BME280;10644;48.834;10.088;2024-01-15T11:45:50;95301.44;;;3.87;55.16
20971;BME280;10644;48.834;10.088;2024-01-15T11:48:17;95294.81;;;3.84;55.76
20971;BME280;10644;48.834;10.088;2024-01-15T11:50:46;95293.97;;;4.01;55.89
20971;BME280;10644;48.834;10.088;2024-01-15T11:56:17;95290.97;;;3.77;59.76
20971;BME280;10644;48.834;10.088;2024-01-15T11:58:45;95283.53;;;3.74;59.46
20971;BME280;10644;48.834;10.088;2024-01-15T12:01:11;95294.34;;;3.61;60.83
20971;BME280;10644;48.834;10.088;2024-01-15T12:03:36;95303.34;;;3.66;60.82
20971;BME280;10644;48.834;10.088;2024-01-15T12:06:01;95297.13;;;3.89;60.76
20971;BME280;10644;48.834;10.088;2024-01-15T12:08:27;95293.00;;;4.03;60.67
20971;BME280;10644;48.834;10.088;2024-01-15T12:10:53;95282.53;;;3.94;61.29
20971;BME280;10644;48.834;10.088;2024-01-15T12:13:20;95290.84;;;3.96;61.02
20971;BME280;10644;48.834;10.088;2024-01-15T12:15:47;95290.03;;;3.95;61.41
20971;BME280;10644;48.834;10.088;2024-01-15T12:18:17;95290.34;;;3.89;61.59
20971;BME280;10644;48.834;10.088;2024-01-15T12:20:44;95297.13;;;3.89;61.77
20971;BME280;10644;48.834;10.088;2024-01-15T12:23:12;95268.53;;;3.87;61.74
20971;BME280;10644;48.834;10.088;2024-01-15T12:25:39;95265.19;;;3.86;62.07
20971;BME280;10644;48.834;10.088;2024-01-15T12:28:05;95267.78;;;3.85;63.12
20971;BME280;10644;48.834;10.088;2024-01-15T12:30:31;95268.41;;;4.05;62.30
20971;BME280;10644;48.834;10.088;2024-01-15T12:33:00;95260.16;;;4.02;61.82
20971;BME280;10644;48.834;10.088;2024-01-15T12:35:25;95268.66;;;4.16;61.61
20971;BME280;10644;48.834;10.088;2024-01-15T12:37:55;95266.13;;;4.16;61.41
20971;BME280;10644;48.834;10.088;2024-01-15T12:40:23;95253.22;;;4.21;61.30
20971;BME280;10644;48.834;10.088;2024-01-15T12:42:49;95259.50;;;4.14;64.43
20971;BME280;10644;48.834;10.088;2024-01-15T12:45:17;95257.66;;;4.48;64.09
20971;BME280;10644;48.834;10.088;2024-01-15T12:47:43;95259.44;;;4.77;62.92
20971;BME280;10644;48.834;10.088;2024-01-15T12:50:11;95252.44;;;4.96;61.30
20971;BME280;10644;48.834;10.088;2024-01-15T12:52:41;95261.44;;;4.86;60.71
20971;BME280;10644;48.834;10.088;2024-01-15T12:55:08;95262.13;;;4.74;60.24
20971;BME280;10644;48.834;10.088;2024-01-15T12:57:37;95262.81;;;4.47;61.61
20971;BME280;10644;48.834;10.088;2024-01-15T13:00:04;95260.53;;;4.42;61.73
20971;BME280;10644;48.834;10.088;2024-01-15T13:02:33;95268.03;;;4.28;62.02
20971;BME280;10644;48.834;10.088;2024-01-15T13:04:59;95265.41;;;4.30;62.91
20971;BME280;10644;48.834;10.088;2024-01-15T13:07:25;95255.94;;;4.33;62.43
20971;BME280;10644;48.834;10.088;2024-01-15T13:09:51;95252.34;;;4.37;61.66